Driscoll, ND (58532)

7:08 AM CST on February 11, 2016 (GMT -0600)
Bismarck Municipal | | Change Station
CLOSE
Current Station
Airport
Location: Bismarck,
Elevation: 1660 ft
Nearby Weather Stations

Elev 1660 ft 46.78 °N, 100.76 °W | Updated 16 minutes ago

Overcast
Overcast
19 °F
Feels Like 11 °F
N
6
Wind Variable Wind from ESE

Today
High -- | Low -- °F
--% Chance of Precip.
Yesterday
High -- | Low -- °F
Precip. -- in
Pressure 30.22 in
Visibility 2.5 miles
Clouds Overcast 3300 ft
Windchill 11 °F
Dew Point 14 °F
Humidity 81%
Rainfall 0.00 in
Snow Depth Not available.
7:51 AM 5:58 PM
Waxing Crescent, 12% visible
METAR KBIS 111252Z AUTO 12005KT 2 1/2SM -SN OVC033 M07/M10 A3013 RMK AO2 SLP234 P0000 T10721100
Pressure 30.22 in
Visibility 2.5 miles
Clouds Overcast 3300 ft
Windchill 11 °F
Dew Point 14 °F
Humidity 81%
Rainfall 0.00 in
Snow Depth Not available.
7:51 AM 5:58 PM
Waxing Crescent, 12% visible
METAR KBIS 111252Z AUTO 12005KT 2 1/2SM -SN OVC033 M07/M10 A3013 RMK AO2 SLP234 P0000 T10721100

10-Day Weather Forecast

Almanac

Astronomy

Feb. 11, 2016 Rise Set
Actual Time
Civil Twilight
Nautical Twilight
Astronomical Twilight
Moon
Length of Visible Light
Length of Day
Tomorrow will be .
, % of the Moon is Illuminated

Today's Extremes

State Highs State Lows

Community

WunderPhotos

Upload Photos

1,892,038 photos uploaded!

WunderBlog® & News

Nearby

Air Quality

  Air Quality AQ Index Pollutant
Not available.

Snow Depth

Station Depth Elevation

Earthquake Activity

City Distance Mag. Time & Date
Minimum magnitude displayed is 2.5.

Coastal Water Temperatures

Place Temperature

Stations

Nearby Weather Stations

Station Location Temp. Windchill Dew Point Humidity Wind Precip. Elev Updated Type
                   

Watches & Warnings

There are currently no watches in effect.